createdAt,value
2022-08-08T00:01:07.879Z,0.90
2022-08-08T00:03:48.463Z,0.68
2022-08-08T00:06:34.283Z,0.75
2022-08-08T00:09:16.867Z,0.65
2022-08-08T00:12:08.057Z,0.73
2022-08-08T00:15:08.116Z,0.60
2022-08-08T00:18:03.494Z,0.80
2022-08-08T00:20:33.627Z,0.50
2022-08-08T00:23:06.502Z,0.73
2022-08-08T00:25:46.166Z,0.85
2022-08-08T00:28:35.267Z,0.57
2022-08-08T00:32:28.420Z,0.82
2022-08-08T00:34:30.232Z,0.70
2022-08-08T00:37:03.887Z,0.50
2022-08-08T00:41:08.052Z,0.90
2022-08-08T00:43:06.087Z,0.77
2022-08-08T00:46:00.454Z,0.60
2022-08-08T00:48:58.975Z,0.90
2022-08-08T00:52:02.601Z,0.77
2022-08-08T00:54:48.330Z,0.85
2022-08-08T00:57:34.575Z,0.50
2022-08-08T01:00:13.388Z,0.80
2022-08-08T01:04:00.775Z,0.50
2022-08-08T01:06:50.950Z,0.88
2022-08-08T01:09:54.046Z,0.60
2022-08-08T01:12:36.034Z,0.80
2022-08-08T01:15:43.547Z,0.85
2022-08-08T01:18:53.655Z,0.70
2022-08-08T01:22:07.157Z,0.80
2022-08-08T01:24:40.326Z,0.93
2022-08-08T01:27:44.195Z,0.80
2022-08-08T01:30:27.313Z,0.70
2022-08-08T01:34:00.345Z,0.70
2022-08-08T01:36:52.389Z,0.73
2022-08-08T01:39:54.204Z,0.90
2022-08-08T01:42:46.246Z,0.63
2022-08-08T01:45:23.333Z,0.70
2022-08-08T01:48:30.977Z,0.75
2022-08-08T01:50:57.915Z,1.00
2022-08-08T01:55:16.810Z,0.88
2022-08-08T01:57:03.453Z,0.75
2022-08-08T02:00:13.071Z,0.77
2022-08-08T02:03:07.547Z,0.60
2022-08-08T02:06:07.282Z,0.60
2022-08-08T02:08:53.363Z,0.73
2022-08-08T02:11:59.457Z,0.60
2022-08-08T02:14:30.336Z,0.60
2022-08-08T02:17:22.358Z,0.60
2022-08-08T02:20:16.079Z,0.70
2022-08-08T02:23:25.476Z,0.50
2022-08-08T02:26:08.129Z,0.60
2022-08-08T02:28:53.338Z,0.60
2022-08-08T02:31:57.843Z,0.70
2022-08-08T02:34:09.842Z,0.60
2022-08-08T02:37:51.832Z,0.80
2022-08-08T02:40:09.575Z,0.65
2022-08-08T02:42:47.171Z,0.68
2022-08-08T02:48:55.213Z,0.60
2022-08-08T02:51:46.778Z,0.50
2022-08-08T02:54:50.104Z,0.77
2022-08-08T02:57:17.263Z,0.80
2022-08-08T03:00:26.816Z,1.02
2022-08-08T03:05:01.674Z,0.60
2022-08-08T03:06:41.561Z,0.80
2022-08-08T03:09:33.101Z,0.98
2022-08-08T03:12:17.686Z,0.60
2022-08-08T03:15:57.765Z,0.57
2022-08-08T03:20:57.990Z,0.47
2022-08-08T03:23:24.606Z,0.60
2022-08-08T03:26:06.397Z,0.90
2022-08-08T03:28:46.560Z,0.70
2022-08-08T03:31:52.744Z,0.60
2022-08-08T03:34:29.135Z,0.80
2022-08-08T03:36:55.494Z,0.70
2022-08-08T03:39:23.123Z,0.80
2022-08-08T03:42:27.537Z,0.90
2022-08-08T03:44:35.877Z,0.65
2022-08-08T03:47:14.107Z,0.88
2022-08-08T03:50:01.149Z,0.70
2022-08-08T03:52:31.338Z,0.82
2022-08-08T03:55:10.183Z,0.80
2022-08-08T03:58:32.024Z,0.82
2022-08-08T04:00:26.555Z,0.60
2022-08-08T04:03:11.052Z,0.88
2022-08-08T04:05:39.851Z,1.10
2022-08-08T04:08:33.579Z,0.90
2022-08-08T04:11:03.019Z,0.80
2022-08-08T04:14:04.272Z,0.82
2022-08-08T04:16:38.542Z,0.80
2022-08-08T04:19:22.915Z,0.60
2022-08-08T04:21:51.352Z,0.95
2022-08-08T04:24:28.699Z,0.80
2022-08-08T04:26:58.712Z,1.10
2022-08-08T04:29:25.926Z,0.80
2022-08-08T04:31:58.572Z,0.80
2022-08-08T04:36:58.147Z,0.70
2022-08-08T04:40:04.621Z,0.80
2022-08-08T04:42:11.432Z,1.00
2022-08-08T04:44:42.550Z,0.70
2022-08-08T04:47:14.410Z,0.73
2022-08-08T04:49:59.089Z,1.00
2022-08-08T04:52:35.029Z,1.10
2022-08-08T04:55:02.215Z,0.90
2022-08-08T04:57:28.924Z,0.80
2022-08-08T04:59:55.484Z,0.90
2022-08-08T05:02:30.450Z,0.90
2022-08-08T05:04:59.368Z,0.90
2022-08-08T05:07:26.840Z,1.23
2022-08-08T05:10:05.277Z,1.20
2022-08-08T05:12:36.751Z,1.45
2022-08-08T05:15:13.748Z,1.02
2022-08-08T05:17:53.853Z,1.05
2022-08-08T05:20:21.099Z,1.15
2022-08-08T05:22:51.310Z,1.08
2022-08-08T05:25:18.276Z,0.90
2022-08-08T05:27:47.894Z,0.88
2022-08-08T05:30:14.708Z,1.10
2022-08-08T05:32:41.527Z,1.55
2022-08-08T05:35:09.835Z,1.45
2022-08-08T05:37:52.984Z,1.60
2022-08-08T05:40:21.575Z,1.30
2022-08-08T05:42:59.763Z,1.63
2022-08-08T05:45:41.444Z,1.73
2022-08-08T05:48:10.774Z,2.08
2022-08-08T05:50:41.842Z,1.40
2022-08-08T05:53:22.981Z,1.05
2022-08-08T05:56:10.199Z,1.20
2022-08-08T05:58:57.449Z,1.00
2022-08-08T06:01:56.358Z,0.90
2022-08-08T06:04:23.714Z,1.25
2022-08-08T06:07:00.265Z,1.25
2022-08-08T06:09:59.880Z,1.17
2022-08-08T06:12:29.524Z,1.10
2022-08-08T06:15:00.221Z,1.10
2022-08-08T06:17:32.081Z,0.80
2022-08-08T06:20:13.991Z,1.10
2022-08-08T06:22:42.784Z,1.63
2022-08-08T06:25:10.305Z,1.33
2022-08-08T06:27:48.221Z,1.00
2022-08-08T06:30:26.138Z,0.80
2022-08-08T06:32:57.124Z,1.02
2022-08-08T06:36:07.910Z,0.80
2022-08-08T06:38:14.510Z,1.23
2022-08-08T06:40:48.268Z,1.10
2022-08-08T06:43:20.690Z,0.90
2022-08-08T06:45:55.891Z,1.10
2022-08-08T06:48:22.654Z,1.10
2022-08-08T06:50:53.595Z,1.45
2022-08-08T06:53:20.914Z,0.70
2022-08-08T06:56:02.676Z,0.70
2022-08-08T06:58:33.693Z,0.77
2022-08-08T07:01:24.287Z,0.85
2022-08-08T07:04:46.681Z,1.00
2022-08-08T07:07:23.784Z,0.95
2022-08-08T07:10:01.451Z,0.70
2022-08-08T07:12:42.929Z,1.50
2022-08-08T07:15:31.922Z,0.85
2022-08-08T07:18:36.725Z,0.88
2022-08-08T07:20:53.481Z,0.95
2022-08-08T07:24:02.000Z,0.85
2022-08-08T07:26:32.920Z,1.20
2022-08-08T07:29:05.274Z,1.00
2022-08-08T07:31:35.433Z,0.88
2022-08-08T07:34:04.078Z,1.00
2022-08-08T07:36:37.414Z,1.20
2022-08-08T07:39:17.733Z,1.15
2022-08-08T07:42:03.484Z,0.90
2022-08-08T07:44:40.586Z,0.90
2022-08-08T07:47:09.992Z,0.80
2022-08-08T07:49:40.216Z,0.80
2022-08-08T07:52:08.042Z,1.00
2022-08-08T07:54:43.179Z,0.98
2022-08-08T07:57:25.675Z,1.20
2022-08-08T08:00:13.334Z,0.90
2022-08-08T08:02:55.197Z,0.93
2022-08-08T08:05:33.302Z,0.93
2022-08-08T08:08:13.869Z,0.60
2022-08-08T08:10:40.787Z,1.00
2022-08-08T08:13:43.094Z,0.75
2022-08-08T08:16:33.343Z,1.15
2022-08-08T08:19:05.162Z,1.20
2022-08-08T08:21:52.501Z,0.90
2022-08-08T08:24:30.595Z,1.23
2022-08-08T08:26:59.989Z,0.77
2022-08-08T08:29:29.630Z,1.20
2022-08-08T08:31:58.190Z,0.90
2022-08-08T08:34:31.809Z,0.90
2022-08-08T08:36:59.450Z,1.00
2022-08-08T08:39:59.763Z,1.10
2022-08-08T08:42:13.385Z,1.20
2022-08-08T08:44:40.050Z,1.15
2022-08-08T08:47:08.815Z,0.80
2022-08-08T08:49:36.793Z,0.90
2022-08-08T08:52:10.384Z,0.82
2022-08-08T08:54:38.496Z,0.77
2022-08-08T08:57:09.293Z,1.00
2022-08-08T09:00:00.042Z,1.00
2022-08-08T09:02:30.815Z,0.90
2022-08-08T09:05:03.631Z,1.13
2022-08-08T09:07:39.624Z,0.98
2022-08-08T09:10:19.704Z,1.23
2022-08-08T09:12:50.462Z,0.80
2022-08-08T09:15:18.690Z,1.00
2022-08-08T09:18:04.149Z,1.00
2022-08-08T09:22:02.959Z,0.90
2022-08-08T09:23:25.748Z,1.00
2022-08-08T09:26:02.011Z,0.95
2022-08-08T09:28:37.782Z,1.20
2022-08-08T09:31:15.461Z,0.80
2022-08-08T09:34:14.996Z,1.00
2022-08-08T09:36:33.727Z,1.00
2022-08-08T09:39:04.090Z,0.95
2022-08-08T09:42:14.597Z,0.90
2022-08-08T09:44:48.104Z,1.02
2022-08-08T09:47:25.892Z,1.08
2022-08-08T09:50:09.995Z,0.90
2022-08-08T09:52:56.669Z,0.98
2022-08-08T09:55:51.825Z,1.10
2022-08-08T09:58:26.075Z,0.75
2022-08-08T10:01:14.526Z,1.15
2022-08-08T10:03:42.144Z,0.93
2022-08-08T10:06:14.824Z,0.88
2022-08-08T10:08:46.002Z,0.90
2022-08-08T10:12:27.832Z,1.10
2022-08-08T10:14:06.081Z,0.75
2022-08-08T10:16:43.256Z,0.88
2022-08-08T10:19:13.382Z,0.70
2022-08-08T10:21:42.581Z,0.77
2022-08-08T10:24:28.596Z,0.82
2022-08-08T10:27:01.095Z,0.80
2022-08-08T10:29:58.142Z,0.93
2022-08-08T10:32:35.900Z,1.00
2022-08-08T10:36:01.913Z,1.00
2022-08-08T10:38:05.348Z,0.88
2022-08-08T10:40:33.017Z,0.80
2022-08-08T10:43:04.041Z,0.68
2022-08-08T10:45:42.250Z,0.90
2022-08-08T10:48:57.763Z,0.77
2022-08-08T10:51:25.910Z,0.80
2022-08-08T10:53:58.178Z,0.68
2022-08-08T10:56:27.384Z,1.20
2022-08-08T10:59:03.924Z,0.75
2022-08-08T11:01:33.327Z,0.70
2022-08-08T11:04:02.609Z,1.20
2022-08-08T11:06:34.882Z,0.75
2022-08-08T11:09:04.053Z,0.70
2022-08-08T11:12:05.449Z,0.70
2022-08-08T11:14:30.048Z,1.08
2022-08-08T11:16:56.998Z,0.90
2022-08-08T11:19:25.332Z,0.70
2022-08-08T11:21:55.625Z,0.75
2022-08-08T11:24:26.841Z,0.75
2022-08-08T11:26:57.461Z,1.02
2022-08-08T11:29:41.953Z,1.02
2022-08-08T11:32:14.503Z,0.98
2022-08-08T11:35:07.383Z,0.80
2022-08-08T11:38:36.836Z,0.82
2022-08-08T11:40:22.648Z,1.00
2022-08-08T11:42:55.170Z,1.08
2022-08-08T11:45:22.846Z,0.90
2022-08-08T11:48:02.981Z,0.73
2022-08-08T11:50:33.680Z,1.00
2022-08-08T11:53:00.875Z,0.80
2022-08-08T11:55:35.268Z,0.60
2022-08-08T11:58:08.506Z,0.90
2022-08-08T12:00:53.736Z,0.95
2022-08-08T12:03:21.182Z,1.20
2022-08-08T12:05:48.312Z,0.90
2022-08-08T12:08:15.029Z,0.90
2022-08-08T12:10:51.727Z,0.63
2022-08-08T12:13:37.991Z,0.88
2022-08-08T12:16:19.520Z,1.17
2022-08-08T12:18:54.457Z,0.90
2022-08-08T12:21:22.065Z,0.90
2022-08-08T12:24:05.599Z,0.90
2022-08-08T12:26:41.606Z,0.82
2022-08-08T12:29:40.602Z,0.77
2022-08-08T12:32:19.957Z,0.77
2022-08-08T12:34:51.113Z,0.95
2022-08-08T12:37:41.524Z,0.77
2022-08-08T12:40:22.198Z,0.90
2022-08-08T12:42:50.817Z,0.70
2022-08-08T12:45:58.516Z,1.00
2022-08-08T12:48:37.549Z,0.85
2022-08-08T12:51:05.659Z,0.80
2022-08-08T12:53:42.035Z,0.55
2022-08-08T12:56:19.054Z,0.98
2022-08-08T12:58:48.051Z,0.82
2022-08-08T13:01:15.616Z,0.82
2022-08-08T13:03:51.901Z,0.70
2022-08-08T13:06:19.483Z,0.70
2022-08-08T13:08:53.618Z,0.88
2022-08-08T13:11:24.354Z,0.90
2022-08-08T13:13:57.637Z,0.70
2022-08-08T13:16:25.953Z,0.70
2022-08-08T13:19:00.529Z,0.50
2022-08-08T13:21:55.652Z,0.70
2022-08-08T13:24:39.774Z,0.80
2022-08-08T13:27:12.334Z,0.70
2022-08-08T13:30:21.170Z,0.77
2022-08-08T13:32:58.007Z,0.70
2022-08-08T13:35:38.321Z,0.70
2022-08-08T13:38:08.120Z,1.00
2022-08-08T13:40:41.117Z,0.70
2022-08-08T13:43:08.203Z,0.85
2022-08-08T13:45:35.254Z,0.70
2022-08-08T13:48:02.878Z,1.00
2022-08-08T13:50:50.501Z,1.05
2022-08-08T13:53:28.192Z,0.73
2022-08-08T13:56:02.403Z,0.60
2022-08-08T13:58:29.762Z,0.88
2022-08-08T14:00:56.318Z,1.00
2022-08-08T14:03:47.149Z,0.80
2022-08-08T14:06:33.326Z,0.65
2022-08-08T14:09:24.258Z,0.82
2022-08-08T14:11:48.006Z,0.70
2022-08-08T14:14:20.513Z,0.80
2022-08-08T14:16:50.823Z,0.75
2022-08-08T14:19:29.373Z,0.90
2022-08-08T14:22:13.549Z,0.90
2022-08-08T14:24:52.522Z,0.80
2022-08-08T14:27:33.208Z,0.68
2022-08-08T14:30:18.176Z,0.90
2022-08-08T14:32:53.283Z,0.93
2022-08-08T14:35:22.404Z,0.93
2022-08-08T14:37:59.873Z,0.80
2022-08-08T14:40:29.694Z,1.08
2022-08-08T14:43:01.356Z,0.85
2022-08-08T14:45:47.037Z,0.60
2022-08-08T14:48:17.903Z,3.92
2022-08-08T14:51:06.839Z,1.17
2022-08-08T14:53:55.012Z,7.30
2022-08-08T14:56:25.134Z,6.22
2022-08-08T14:58:52.410Z,4.32
2022-08-08T15:01:41.373Z,1.92
2022-08-08T15:04:09.598Z,0.70
2022-08-08T15:06:36.198Z,1.00
2022-08-08T15:09:04.309Z,0.85
2022-08-08T15:11:39.396Z,1.00
2022-08-08T15:14:14.339Z,0.90
2022-08-08T15:16:42.657Z,0.73
2022-08-08T15:19:10.924Z,3.17
2022-08-08T15:21:37.878Z,0.90
2022-08-08T15:24:13.913Z,1.10
2022-08-08T15:26:46.786Z,0.80
2022-08-08T15:29:22.711Z,1.02
2022-08-08T15:32:03.809Z,0.70
2022-08-08T15:34:38.790Z,1.00
2022-08-08T15:37:06.248Z,0.80
2022-08-08T15:39:38.514Z,0.90
2022-08-08T15:42:12.991Z,1.02
2022-08-08T15:47:15.753Z,0.90
2022-08-08T15:49:47.875Z,0.98
2022-08-08T15:52:15.695Z,0.95
2022-08-08T15:54:47.718Z,1.13
2022-08-08T15:57:15.396Z,0.88
2022-08-08T16:00:25.446Z,0.75
2022-08-08T16:02:31.249Z,0.63
2022-08-08T16:04:59.975Z,0.65
2022-08-08T16:07:39.262Z,0.90
2022-08-08T16:13:02.009Z,0.90
2022-08-08T16:13:28.022Z,1.00
2022-08-08T16:15:59.215Z,0.90
2022-08-08T16:18:30.038Z,0.60
2022-08-08T16:21:00.629Z,0.70
2022-08-08T16:23:28.459Z,1.60
2022-08-08T16:26:03.529Z,1.00
2022-08-08T16:28:35.226Z,1.08
2022-08-08T16:31:06.283Z,1.10
2022-08-08T16:33:38.710Z,0.88
2022-08-08T16:36:09.615Z,1.10
2022-08-08T16:38:40.744Z,0.70
2022-08-08T16:41:20.280Z,0.80
2022-08-08T16:43:51.610Z,0.82
2022-08-08T16:46:44.743Z,1.20
2022-08-08T16:49:08.930Z,0.73
2022-08-08T16:55:04.473Z,0.80
2022-08-08T16:55:05.269Z,0.82
2022-08-08T16:57:27.813Z,1.00
2022-08-08T17:00:00.850Z,0.80
2022-08-08T17:02:32.640Z,1.05
2022-08-08T17:05:06.095Z,0.80
2022-08-08T17:07:32.702Z,0.80
2022-08-08T17:09:59.123Z,1.00
2022-08-08T17:12:28.363Z,0.68
2022-08-08T17:14:55.442Z,0.70
2022-08-08T17:17:41.955Z,1.27
2022-08-08T17:20:09.365Z,0.80
2022-08-08T17:22:42.105Z,0.88
2022-08-08T17:25:09.475Z,0.98
2022-08-08T17:27:46.213Z,0.65
2022-08-08T17:30:27.539Z,0.80
2022-08-08T17:34:37.783Z,0.90
2022-08-08T17:35:53.203Z,1.05
2022-08-08T17:38:22.899Z,0.88
2022-08-08T17:40:49.332Z,0.82
2022-08-08T17:43:15.873Z,1.15
2022-08-08T17:45:42.275Z,0.90
2022-08-08T17:48:14.855Z,0.98
2022-08-08T17:50:56.225Z,1.23
2022-08-08T17:53:42.571Z,0.90
2022-08-08T17:56:08.951Z,0.85
2022-08-08T17:58:35.331Z,1.00
2022-08-08T18:01:07.369Z,0.80
2022-08-08T18:03:36.765Z,1.15
2022-08-08T18:06:03.382Z,0.90
2022-08-08T18:08:46.574Z,0.70
2022-08-08T18:11:16.302Z,1.00
2022-08-08T18:13:45.298Z,1.50
2022-08-08T18:16:12.711Z,1.23
2022-08-08T18:18:42.662Z,0.70
2022-08-08T18:21:25.019Z,1.35
2022-08-08T18:23:58.164Z,1.00
2022-08-08T18:26:25.681Z,1.20
2022-08-08T18:28:55.565Z,0.95
2022-08-08T18:31:22.166Z,0.98
2022-08-08T18:34:11.713Z,1.70
2022-08-08T18:36:36.477Z,1.10
2022-08-08T18:39:03.384Z,1.00
2022-08-08T18:41:51.095Z,1.10
2022-08-08T18:44:16.461Z,1.65
2022-08-08T18:46:56.225Z,1.30
2022-08-08T18:49:25.919Z,1.20
2022-08-08T18:52:07.834Z,1.92
2022-08-08T18:54:34.609Z,1.00
2022-08-08T18:57:04.005Z,1.45
2022-08-08T18:59:38.517Z,1.35
2022-08-08T19:02:17.937Z,1.20
2022-08-08T19:04:53.717Z,0.90
2022-08-08T19:07:23.096Z,1.08
2022-08-08T19:10:13.595Z,1.15
2022-08-08T19:12:36.777Z,1.08
2022-08-08T19:15:10.690Z,1.17
2022-08-08T19:17:47.952Z,1.10
2022-08-08T19:20:25.136Z,1.10
2022-08-08T19:22:51.752Z,1.10
2022-08-08T19:26:01.106Z,1.00
2022-08-08T19:28:19.460Z,1.20
2022-08-08T19:30:51.450Z,1.02
2022-08-08T19:33:51.679Z,1.15
2022-08-08T19:36:18.130Z,2.17
2022-08-08T19:38:54.267Z,1.20
2022-08-08T19:41:21.491Z,1.10
2022-08-08T19:44:03.356Z,1.30
2022-08-08T19:46:38.239Z,1.00
2022-08-08T19:49:04.657Z,0.77
2022-08-08T19:51:34.873Z,1.33
2022-08-08T19:54:06.067Z,1.20
2022-08-08T19:56:40.736Z,0.98
2022-08-08T19:59:08.813Z,0.80
2022-08-08T20:02:01.042Z,0.85
2022-08-08T20:04:22.366Z,1.20
2022-08-08T20:06:50.862Z,0.80
2022-08-08T20:09:22.888Z,0.93
2022-08-08T20:11:49.890Z,1.25
2022-08-08T20:14:34.928Z,1.00
2022-08-08T20:17:04.081Z,1.20
2022-08-08T20:19:34.659Z,0.82
2022-08-08T20:22:13.229Z,1.10
2022-08-08T20:24:53.042Z,1.00
2022-08-08T20:27:21.046Z,0.93
2022-08-08T20:30:00.622Z,1.10
2022-08-08T20:32:28.320Z,1.00
2022-08-08T20:35:01.055Z,1.00
2022-08-08T20:37:37.021Z,1.30
2022-08-08T20:40:16.713Z,0.90
2022-08-08T20:42:50.385Z,1.15
2022-08-08T20:45:54.726Z,1.42
2022-08-08T20:48:08.174Z,1.10
2022-08-08T20:50:35.193Z,1.33
2022-08-08T20:53:01.648Z,0.88
2022-08-08T20:55:29.034Z,1.20
2022-08-08T21:00:28.643Z,1.30
2022-08-08T21:02:56.876Z,0.90
2022-08-08T21:05:23.531Z,1.20
2022-08-08T21:08:37.035Z,1.20
2022-08-08T21:10:44.891Z,0.90
2022-08-08T21:13:11.262Z,1.02
2022-08-08T21:16:05.777Z,1.42
2022-08-08T21:18:27.783Z,1.17
2022-08-08T21:20:54.555Z,1.38
2022-08-08T21:23:25.141Z,1.30
2022-08-08T21:26:07.555Z,1.20
2022-08-08T21:28:36.159Z,1.33
2022-08-08T21:31:21.856Z,1.33
2022-08-08T21:33:49.758Z,1.33
2022-08-08T21:36:20.898Z,1.60
2022-08-08T21:38:54.854Z,1.90
2022-08-08T21:41:38.103Z,1.42
2022-08-08T21:44:09.226Z,1.73
2022-08-08T21:48:08.719Z,1.90
2022-08-08T21:49:23.301Z,1.65
2022-08-08T21:54:33.971Z,2.15
2022-08-08T21:55:01.760Z,1.60
2022-08-08T21:57:24.764Z,1.67
2022-08-08T22:00:03.647Z,1.67
2022-08-08T22:02:31.394Z,1.50
2022-08-08T22:04:59.319Z,1.45
2022-08-08T22:07:39.534Z,1.75
2022-08-08T22:10:09.382Z,1.75
2022-08-08T22:12:36.266Z,1.70
2022-08-08T22:15:04.372Z,1.70
2022-08-08T22:17:31.460Z,2.13
2022-08-08T22:20:11.429Z,1.95
2022-08-08T22:22:39.692Z,1.70
2022-08-08T22:25:19.669Z,1.90
2022-08-08T22:28:02.939Z,1.52
2022-08-08T22:30:32.018Z,1.85
2022-08-08T22:33:00.178Z,1.95
2022-08-08T22:35:27.374Z,1.73
2022-08-08T22:38:14.735Z,1.55
2022-08-08T22:40:44.241Z,1.77
2022-08-08T22:43:11.214Z,1.85
2022-08-08T22:45:38.596Z,1.92
2022-08-08T22:48:06.279Z,1.80
2022-08-08T22:50:33.679Z,2.25
2022-08-08T22:54:33.908Z,1.70
2022-08-08T22:55:59.476Z,1.95
2022-08-08T22:58:32.785Z,1.48
2022-08-08T23:01:00.843Z,1.90
2022-08-08T23:03:53.224Z,1.70
2022-08-08T23:06:15.781Z,1.60
2022-08-08T23:08:44.270Z,1.70
2022-08-08T23:11:20.494Z,1.90
2022-08-08T23:13:53.427Z,2.30
2022-08-08T23:16:38.580Z,1.85
2022-08-08T23:19:09.422Z,1.67
2022-08-08T23:21:35.948Z,1.40
2022-08-08T23:24:06.598Z,1.83
2022-08-08T23:26:34.028Z,1.90
2022-08-08T23:29:01.324Z,1.80
2022-08-08T23:31:27.758Z,2.00
2022-08-08T23:34:18.083Z,1.77
2022-08-08T23:36:40.851Z,1.92
2022-08-08T23:39:07.487Z,1.98
2022-08-08T23:41:43.580Z,1.92
2022-08-08T23:44:13.945Z,1.60
2022-08-08T23:49:05.630Z,1.80
2022-08-08T23:49:26.665Z,1.98
2022-08-08T23:52:06.675Z,1.83
2022-08-08T23:54:42.791Z,1.63
2022-08-08T23:57:27.006Z,1.92
